PROFILE

 METAR AND TAF INFORMATION
ADDS - METARS form results

(0456 UTC 13 July 2020)
http://aviationweather.gov/metar/data/
 
EGAA 130450Z 22008KT 9999 BKN006 BKN009 BKN035 15/14 Q1019
EGAA 130420Z 22007KT 9999 BKN006 BKN016 15/14 Q1019
TAF AMD EGAA 130434Z 1304/1324 21012KT 9999 BKN007 BECMG 1304/1307 27012KT SCT025 PROB40 TEMPO 1304/1307 4000 DZ BKN004 TEMPO 1307/1312 6000 -RADZ BKN012 PROB30 TEMPO 1312/1318 8000 -SHRA 

 AIRPORT MAP

 RUNWAY INFORMATION
Runway 07 Runway length 9121 ft Runway width 148 ft
Runway elevation 206 ft Runway displaced threshold 0 ft Runway heading 65
Runway 25 Runway length 9121 ft Runway width 148 ft
Runway elevation 268 ft Runway displaced threshold 0 ft Runway heading 245
Runway 17 Runway length 6401 ft Runway width 148 ft
Runway elevation 206 ft Runway displaced threshold 525 ft Runway heading 162
Runway 35 Runway length 6401 ft Runway width 148 ft
Runway elevation 258 ft Runway displaced threshold 502 ft Runway heading 342

 AIRPORT FREQUENCIES
Type APP Name APP Frequency 128.5 MHZ
Type ATIS Name ATIS Frequency 128.2 MHZ
Type GND Name GND Frequency 121.75 MHZ
Type ILS 17 Name Frequency 110.9 MHZ
Type ILS 25 Name Frequency 109.9 MHZ
Type OPS Name OPS Frequency 26.48 MHZ
Type RDR Name DIRECTOR Frequency 120.9 MHZ
Type TWR Name TWR Frequency 118.3 MHZ

 AIRPORT NEAR NAVIGATION AIDS
Type VOR-DME Name Belfast Frequency 117200 KHZ
Type NDB Name Aldergrove Frequency 332 KHZ